Time;durP1;ratioP1;P1;durP2;ratioP2;P2;SDS_P1;SDS_P2;PMS_P1;PMS_P2;Temp;Humidity;BMP_temperature;BMP_pressure;BME280_temperature;BME280_humidity;BME280_pressure;Samples;Min_cycle;Max_cycle;Signal;HPM_P1;HPM_P2
2022/11/13 00:02:16;;;;;;;0.20;0.10;;;;;;;;;;5050005;28;20194;-82
2022/11/13 00:04:42;;;;;;;0.20;0.10;;;;;;;;;;5042495;28;20067;-83
2022/11/13 00:07:08;;;;;;;0.20;0.10;;;;;;;;;;5031406;28;20036;-84
2022/11/13 00:09:34;;;;;;;0.20;0.10;;;;;;;;;;5031200;28;20037;-84
2022/11/13 00:12:00;;;;;;;0.20;0.10;;;;;;;;;;5016375;28;20076;-81
2022/11/13 00:14:26;;;;;;;0.20;0.20;;;;;;;;;;5017291;28;20043;-84
2022/11/13 00:16:52;;;;;;;0.20;0.10;;;;;;;;;;5031191;28;20086;-83
2022/11/13 00:19:18;;;;;;;0.20;0.10;;;;;;;;;;5048366;28;20105;-84
2022/11/13 00:21:44;;;;;;;0.20;0.13;;;;;;;;;;5029054;28;20117;-82
2022/11/13 00:24:10;;;;;;;0.20;0.10;;;;;;;;;;5022683;28;20041;-86
2022/11/13 00:26:38;;;;;;;1.48;0.30;;;;;;;;;;5028610;28;20055;-83
2022/11/13 00:29:04;;;;;;;0.20;0.10;;;;;;;;;;5027637;28;20036;-84
2022/11/13 00:31:30;;;;;;;0.57;0.22;;;;;;;;;;5019639;28;20134;-85
2022/11/13 00:33:58;;;;;;;0.20;0.20;;;;;;;;;;5050257;28;20047;-84
2022/11/13 00:36:26;;;;;;;0.45;0.13;;;;;;;;;;5022633;28;20091;-85
2022/11/13 00:38:52;;;;;;;0.20;0.10;;;;;;;;;;5042035;28;20039;-82
2022/11/13 00:41:18;;;;;;;0.30;0.22;;;;;;;;;;5024655;28;20054;-83
2022/11/13 00:43:44;;;;;;;0.20;0.10;;;;;;;;;;5039626;28;20071;-82
2022/11/13 00:46:11;;;;;;;0.50;0.50;;;;;;;;;;5054676;28;20043;-84
2022/11/13 00:48:37;;;;;;;0.20;0.10;;;;;;;;;;5041359;28;20033;-84
2022/11/13 00:51:03;;;;;;;0.20;0.10;;;;;;;;;;5059516;28;20048;-83
2022/11/13 00:53:29;;;;;;;0.20;0.10;;;;;;;;;;5058282;28;20665;-84
2022/11/13 00:55:56;;;;;;;0.20;0.10;;;;;;;;;;5052795;28;20048;-82
2022/11/13 00:58:22;;;;;;;0.20;0.10;;;;;;;;;;5025820;28;20036;-83
2022/11/13 01:00:48;;;;;;;0.40;0.40;;;;;;;;;;5055154;28;20051;-82
2022/11/13 01:03:15;;;;;;;0.20;0.10;;;;;;;;;;5036699;28;20044;-82
2022/11/13 01:05:42;;;;;;;0.20;0.10;;;;;;;;;;5035687;28;20036;-84
2022/11/13 01:08:09;;;;;;;0.20;0.10;;;;;;;;;;5035064;28;20691;-85
2022/11/13 01:10:37;;;;;;;0.75;0.40;;;;;;;;;;5033974;28;20402;-82
2022/11/13 01:13:03;;;;;;;0.20;0.10;;;;;;;;;;5051261;28;20120;-83
2022/11/13 01:15:30;;;;;;;0.20;0.10;;;;;;;;;;5022280;28;20040;-85
2022/11/13 01:17:56;;;;;;;0.40;0.30;;;;;;;;;;5033411;28;20053;-84
2022/11/13 01:20:23;;;;;;;0.20;0.10;;;;;;;;;;5048641;28;20732;-87
2022/11/13 01:22:49;;;;;;;0.20;0.10;;;;;;;;;;5039964;28;20046;-83
2022/11/13 01:25:15;;;;;;;0.38;0.17;;;;;;;;;;5034407;28;20529;-84
2022/11/13 01:27:41;;;;;;;0.20;0.10;;;;;;;;;;5040018;28;20036;-84
2022/11/13 01:30:08;;;;;;;0.20;0.10;;;;;;;;;;5056602;28;20040;-84
2022/11/13 01:32:34;;;;;;;0.20;0.10;;;;;;;;;;5036573;28;20049;-83
2022/11/13 01:35:00;;;;;;;0.20;0.10;;;;;;;;;;5042808;28;20058;-83
2022/11/13 01:37:26;;;;;;;0.47;0.47;;;;;;;;;;5038368;28;20048;-85
2022/11/13 01:39:52;;;;;;;0.20;0.10;;;;;;;;;;5041609;28;20044;-84
2022/11/13 01:42:18;;;;;;;0.20;0.10;;;;;;;;;;5040919;28;20037;-84
2022/11/13 01:44:55;;;;;;;0.28;0.25;;;;;;;;;;5040400;28;20517;-83
2022/11/13 01:47:22;;;;;;;0.20;0.10;;;;;;;;;;5056170;28;20395;-83
2022/11/13 01:49:50;;;;;;;0.20;0.10;;;;;;;;;;5049181;28;20041;-82
2022/11/13 01:52:19;;;;;;;0.20;0.10;;;;;;;;;;5042326;28;20083;-82
2022/11/13 01:54:50;;;;;;;0.20;0.10;;;;;;;;;;5055104;28;20036;-84
2022/11/13 01:57:17;;;;;;;0.20;0.10;;;;;;;;;;5041257;28;20036;-82
2022/11/13 01:59:45;;;;;;;0.20;0.10;;;;;;;;;;5039984;28;20103;-84
2022/11/13 02:02:11;;;;;;;0.20;0.10;;;;;;;;;;5051335;28;20068;-84
2022/11/13 02:04:37;;;;;;;0.20;0.20;;;;;;;;;;5035651;28;20033;-84
2022/11/13 02:07:04;;;;;;;0.20;0.10;;;;;;;;;;5025068;28;20668;-84
2022/11/13 02:09:41;;;;;;;0.30;0.20;;;;;;;;;;5034643;28;20196;-85
2022/11/13 02:12:09;;;;;;;0.20;0.10;;;;;;;;;;5042415;28;20043;-84
2022/11/13 02:14:38;;;;;;;0.20;0.10;;;;;;;;;;5032590;28;21288;-84
2022/11/13 02:17:06;;;;;;;0.20;0.10;;;;;;;;;;5047145;28;20048;-84
2022/11/13 02:19:35;;;;;;;2.10;0.25;;;;;;;;;;5032803;28;21617;-83
2022/11/13 02:22:13;;;;;;;0.20;0.10;;;;;;;;;;5034601;28;20047;-83
2022/11/13 02:24:40;;;;;;;0.20;0.10;;;;;;;;;;5037537;28;20503;-84
2022/11/13 02:27:10;;;;;;;0.20;0.10;;;;;;;;;;5032752;28;20032;-84
2022/11/13 02:29:36;;;;;;;0.20;0.10;;;;;;;;;;5036515;28;20086;-85
2022/11/13 02:32:02;;;;;;;0.20;0.10;;;;;;;;;;5052948;28;20877;-82
2022/11/13 02:34:28;;;;;;;0.20;0.10;;;;;;;;;;5034746;28;20047;-85
2022/11/13 02:36:54;;;;;;;0.20;0.10;;;;;;;;;;5018277;28;20127;-84
2022/11/13 02:39:20;;;;;;;0.50;0.50;;;;;;;;;;5018205;28;20072;-83
2022/11/13 02:41:46;;;;;;;0.30;0.15;;;;;;;;;;5030176;28;20037;-84
2022/11/13 02:44:12;;;;;;;0.20;0.10;;;;;;;;;;5032264;28;20083;-88
2022/11/13 02:46:38;;;;;;;0.20;0.10;;;;;;;;;;5041888;28;20604;-84
2022/11/13 02:49:04;;;;;;;0.20;0.10;;;;;;;;;;5057900;28;20032;-85
2022/11/13 02:51:30;;;;;;;0.20;0.10;;;;;;;;;;5038010;28;20040;-83
2022/11/13 02:53:56;;;;;;;0.40;0.20;;;;;;;;;;5042287;28;20706;-83
2022/11/13 02:56:23;;;;;;;0.20;0.10;;;;;;;;;;5033842;28;20392;-82
2022/11/13 02:58:49;;;;;;;0.22;0.10;;;;;;;;;;5050024;28;20036;-83
2022/11/13 03:01:15;;;;;;;0.20;0.10;;;;;;;;;;5039432;28;20091;-84
2022/11/13 03:03:41;;;;;;;0.35;0.35;;;;;;;;;;5034704;28;20037;-82
2022/11/13 03:06:07;;;;;;;0.20;0.10;;;;;;;;;;5033521;28;20165;-84
2022/11/13 03:08:33;;;;;;;0.20;0.10;;;;;;;;;;5039239;28;20123;-84
2022/11/13 03:10:59;;;;;;;0.20;0.10;;;;;;;;;;5015591;28;20076;-85
2022/11/13 03:13:25;;;;;;;0.35;0.35;;;;;;;;;;5021171;28;20036;-87
2022/11/13 03:15:54;;;;;;;0.20;0.10;;;;;;;;;;5035174;28;20048;-85
2022/11/13 03:18:20;;;;;;;0.20;0.10;;;;;;;;;;5039470;28;20036;-82
2022/11/13 03:20:46;;;;;;;0.73;0.73;;;;;;;;;;5023971;28;20411;-84
2022/11/13 03:23:12;;;;;;;0.20;0.20;;;;;;;;;;5031805;28;20635;-84
2022/11/13 03:25:38;;;;;;;0.20;0.10;;;;;;;;;;5038068;28;20049;-84
2022/11/13 03:28:04;;;;;;;0.20;0.10;;;;;;;;;;5033261;28;20060;-83
2022/11/13 03:30:30;;;;;;;0.20;0.10;;;;;;;;;;5027203;28;20393;-83
2022/11/13 03:32:56;;;;;;;0.43;0.43;;;;;;;;;;5041241;28;20123;-83
2022/11/13 03:35:23;;;;;;;0.20;0.20;;;;;;;;;;5046659;28;20044;-84
2022/11/13 03:37:50;;;;;;;0.20;0.10;;;;;;;;;;5036340;28;20041;-82
2022/11/13 03:42:49;;;;;;;0.20;0.10;;;;;;;;;;5079214;28;20044;-84
2022/11/13 03:45:15;;;;;;;0.20;0.10;;;;;;;;;;5056459;28;20085;-83
2022/11/13 03:47:41;;;;;;;0.20;0.10;;;;;;;;;;5046878;28;20496;-83
2022/11/13 03:50:07;;;;;;;0.20;0.10;;;;;;;;;;5065182;28;20044;-82
2022/11/13 03:52:33;;;;;;;0.20;0.10;;;;;;;;;;5047035;28;20048;-83
2022/11/13 03:54:59;;;;;;;0.40;0.38;;;;;;;;;;5050250;28;20159;-85
2022/11/13 03:57:25;;;;;;;0.20;0.20;;;;;;;;;;5037788;28;20044;-83
2022/11/13 03:59:51;;;;;;;0.20;0.10;;;;;;;;;;5021721;28;20047;-83
2022/11/13 04:02:17;;;;;;;0.75;0.40;;;;;;;;;;5038708;28;20053;-84
2022/11/13 04:04:43;;;;;;;0.20;0.10;;;;;;;;;;5022014;28;22198;-83
2022/11/13 04:07:09;;;;;;;0.20;0.10;;;;;;;;;;5023714;28;20076;-83
2022/11/13 04:09:35;;;;;;;0.50;0.50;;;;;;;;;;5040177;28;20039;-83
2022/11/13 04:12:01;;;;;;;0.20;0.10;;;;;;;;;;5041953;28;20043;-83
2022/11/13 04:14:27;;;;;;;0.20;0.10;;;;;;;;;;5035554;28;20040;-84
2022/11/13 04:16:53;;;;;;;0.20;0.10;;;;;;;;;;5038592;28;20041;-83
2022/11/13 04:19:19;;;;;;;0.20;0.10;;;;;;;;;;5021829;28;20055;-84
2022/11/13 04:21:45;;;;;;;0.20;0.10;;;;;;;;;;5036396;28;20098;-83
2022/11/13 04:24:11;;;;;;;0.20;0.10;;;;;;;;;;5033018;28;20558;-83
2022/11/13 04:26:37;;;;;;;0.20;0.10;;;;;;;;;;5032848;28;20128;-83
2022/11/13 04:29:03;;;;;;;0.20;0.10;;;;;;;;;;5023448;28;20043;-84
2022/11/13 04:31:30;;;;;;;0.20;0.10;;;;;;;;;;5020050;28;20041;-83
2022/11/13 04:33:56;;;;;;;0.20;0.10;;;;;;;;;;5023397;28;20051;-84
2022/11/13 04:36:22;;;;;;;0.20;0.10;;;;;;;;;;5043946;28;20124;-83
2022/11/13 04:38:48;;;;;;;0.20;0.10;;;;;;;;;;5055111;28;20079;-83
2022/11/13 04:43:58;;;;;;;0.20;0.10;;;;;;;;;;5058755;28;20055;-83
2022/11/13 04:46:25;;;;;;;0.20;0.10;;;;;;;;;;5042099;28;20037;-82
2022/11/13 04:48:51;;;;;;;0.20;0.10;;;;;;;;;;5040258;28;20032;-85
2022/11/13 04:51:17;;;;;;;0.20;0.10;;;;;;;;;;5057519;28;20042;-84
2022/11/13 04:53:43;;;;;;;0.20;0.10;;;;;;;;;;5053681;28;20041;-83
2022/11/13 04:56:09;;;;;;;0.20;0.10;;;;;;;;;;5038745;28;20036;-83
2022/11/13 04:58:36;;;;;;;0.20;0.10;;;;;;;;;;5021248;28;20167;-83
2022/11/13 05:01:03;;;;;;;0.20;0.20;;;;;;;;;;5053300;28;20075;-83
2022/11/13 05:03:29;;;;;;;0.20;0.10;;;;;;;;;;5048873;28;20033;-83
2022/11/13 05:06:01;;;;;;;0.32;0.32;;;;;;;;;;5033962;28;22890;-83
2022/11/13 05:08:27;;;;;;;0.20;0.10;;;;;;;;;;5037361;28;20091;-84
2022/11/13 05:10:53;;;;;;;0.75;0.40;;;;;;;;;;5023852;28;20032;-83
2022/11/13 05:13:19;;;;;;;0.20;0.10;;;;;;;;;;5073639;28;20449;-83
2022/11/13 05:15:45;;;;;;;0.20;0.10;;;;;;;;;;5023855;28;20507;-83
2022/11/13 05:18:11;;;;;;;0.20;0.10;;;;;;;;;;5052961;28;21001;-84
2022/11/13 05:20:37;;;;;;;0.30;0.30;;;;;;;;;;5043512;28;20051;-83
2022/11/13 05:23:03;;;;;;;0.20;0.10;;;;;;;;;;5040320;28;20048;-83
2022/11/13 05:25:30;;;;;;;1.98;0.47;;;;;;;;;;5023827;28;20076;-83
2022/11/13 05:27:59;;;;;;;0.20;0.20;;;;;;;;;;5055945;28;20055;-85
2022/11/13 05:30:25;;;;;;;0.20;0.10;;;;;;;;;;5037117;28;20143;-83
2022/11/13 05:32:51;;;;;;;0.20;0.00;;;;;;;;;;5056275;28;20032;-83
2022/11/13 05:35:17;;;;;;;0.20;0.10;;;;;;;;;;5052422;28;20041;-84
2022/11/13 05:37:44;;;;;;;0.20;0.10;;;;;;;;;;5024871;28;20139;-83
2022/11/13 05:40:10;;;;;;;0.20;0.10;;;;;;;;;;5026330;28;20059;-83
2022/11/13 05:42:36;;;;;;;0.20;0.10;;;;;;;;;;5041902;28;20036;-83
2022/11/13 05:45:02;;;;;;;0.20;0.10;;;;;;;;;;5061583;28;20060;-84
2022/11/13 05:47:28;;;;;;;0.20;0.10;;;;;;;;;;5032193;28;20115;-83
2022/11/13 05:49:54;;;;;;;5.30;0.55;;;;;;;;;;5066112;28;20048;-83
2022/11/13 05:52:20;;;;;;;0.20;0.10;;;;;;;;;;5047865;28;20442;-83
2022/11/13 05:54:46;;;;;;;0.38;0.30;;;;;;;;;;5065327;28;20503;-83
2022/11/13 05:57:12;;;;;;;0.20;0.00;;;;;;;;;;5023447;28;20495;-83
2022/11/13 05:59:38;;;;;;;0.20;0.10;;;;;;;;;;5028330;28;20661;-85
2022/11/13 06:02:04;;;;;;;0.20;0.10;;;;;;;;;;5035564;28;20487;-82
2022/11/13 06:04:30;;;;;;;0.20;0.10;;;;;;;;;;5037126;28;20045;-83
2022/11/13 06:06:57;;;;;;;0.20;0.10;;;;;;;;;;5060645;28;20118;-85
2022/11/13 06:09:23;;;;;;;0.20;0.10;;;;;;;;;;5055605;28;20033;-83
2022/11/13 06:11:49;;;;;;;0.20;0.10;;;;;;;;;;5040965;28;20045;-83
2022/11/13 06:14:15;;;;;;;0.20;0.10;;;;;;;;;;5024953;28;20063;-84
2022/11/13 06:16:41;;;;;;;0.40;0.35;;;;;;;;;;5039116;28;20033;-82
2022/11/13 06:19:08;;;;;;;0.28;0.22;;;;;;;;;;5064613;28;22066;-83
2022/11/13 06:21:36;;;;;;;0.20;0.10;;;;;;;;;;5062120;28;20145;-84
2022/11/13 06:24:03;;;;;;;0.20;0.10;;;;;;;;;;5050322;28;20041;-83
2022/11/13 06:26:33;;;;;;;0.20;0.10;;;;;;;;;;5044204;28;20044;-84
2022/11/13 06:29:00;;;;;;;0.20;0.10;;;;;;;;;;5051707;28;20870;-84
2022/11/13 06:31:30;;;;;;;0.20;0.10;;;;;;;;;;5047859;28;20746;-82
2022/11/13 06:33:58;;;;;;;0.75;0.20;;;;;;;;;;5027163;28;20036;-83
2022/11/13 06:36:25;;;;;;;0.20;0.10;;;;;;;;;;5027801;28;20790;-83
2022/11/13 06:38:51;;;;;;;0.20;0.10;;;;;;;;;;5039903;28;20044;-83
2022/11/13 06:41:19;;;;;;;0.20;0.10;;;;;;;;;;5037187;28;20035;-83
2022/11/13 06:43:46;;;;;;;0.20;0.10;;;;;;;;;;5039065;28;20032;-83
2022/11/13 06:46:17;;;;;;;0.20;0.10;;;;;;;;;;5035696;28;20045;-83
2022/11/13 06:48:43;;;;;;;0.20;0.10;;;;;;;;;;5052719;28;20048;-82
2022/11/13 06:51:19;;;;;;;0.20;0.10;;;;;;;;;;5057280;28;20036;-83
2022/11/13 06:53:46;;;;;;;0.20;0.10;;;;;;;;;;5044211;28;20454;-83
2022/11/13 06:56:12;;;;;;;0.20;0.10;;;;;;;;;;5061809;28;20029;-83
2022/11/13 06:58:38;;;;;;;0.20;0.10;;;;;;;;;;5033340;28;20032;-83
2022/11/13 07:01:05;;;;;;;0.20;0.08;;;;;;;;;;5038984;28;20076;-82
2022/11/13 07:03:31;;;;;;;0.20;0.10;;;;;;;;;;5036673;28;20033;-83
2022/11/13 07:06:00;;;;;;;0.20;0.10;;;;;;;;;;5049106;28;20044;-83
2022/11/13 07:08:26;;;;;;;0.20;0.15;;;;;;;;;;5053399;28;20032;-83
2022/11/13 07:10:56;;;;;;;0.20;0.20;;;;;;;;;;5053037;28;20040;-86
2022/11/13 07:13:23;;;;;;;0.47;0.47;;;;;;;;;;5055993;28;20117;-83
2022/11/13 07:15:49;;;;;;;0.20;0.10;;;;;;;;;;5038820;28;20037;-84
2022/11/13 07:18:15;;;;;;;0.20;0.10;;;;;;;;;;5040241;28;20566;-83
2022/11/13 07:20:41;;;;;;;0.20;0.10;;;;;;;;;;5052544;28;20041;-85
2022/11/13 07:23:07;;;;;;;0.30;0.20;;;;;;;;;;5031705;28;20064;-83
2022/11/13 07:25:34;;;;;;;0.20;0.10;;;;;;;;;;5036138;28;20151;-83
2022/11/13 07:28:00;;;;;;;0.20;0.10;;;;;;;;;;5052813;28;20048;-82
2022/11/13 07:30:26;;;;;;;0.20;0.10;;;;;;;;;;5037741;28;20048;-85
2022/11/13 07:32:52;;;;;;;0.20;0.10;;;;;;;;;;5035747;28;20041;-84
2022/11/13 07:35:18;;;;;;;0.20;0.10;;;;;;;;;;5032255;28;20044;-83
2022/11/13 07:37:45;;;;;;;0.20;0.10;;;;;;;;;;5043033;28;20379;-84
2022/11/13 07:40:11;;;;;;;0.20;0.10;;;;;;;;;;5046711;28;20059;-83
2022/11/13 07:42:38;;;;;;;0.20;0.10;;;;;;;;;;5020106;28;20947;-83
2022/11/13 07:45:04;;;;;;;0.20;0.10;;;;;;;;;;5049264;28;20049;-85
2022/11/13 07:47:30;;;;;;;0.20;0.10;;;;;;;;;;5028294;28;20040;-83
2022/11/13 07:49:56;;;;;;;0.20;0.10;;;;;;;;;;5035102;28;20036;-84
2022/11/13 07:52:23;;;;;;;0.20;0.10;;;;;;;;;;5033165;28;20045;-84
2022/11/13 07:54:49;;;;;;;0.20;0.10;;;;;;;;;;5051892;28;20049;-85
2022/11/13 07:57:15;;;;;;;0.20;0.10;;;;;;;;;;5032260;28;20048;-83
2022/11/13 07:59:41;;;;;;;0.20;0.10;;;;;;;;;;5022406;28;20067;-84
2022/11/13 08:02:10;;;;;;;0.35;0.17;;;;;;;;;;5019075;28;20115;-84
2022/11/13 08:04:36;;;;;;;0.20;0.10;;;;;;;;;;5056102;28;20033;-83
2022/11/13 08:07:02;;;;;;;0.20;0.10;;;;;;;;;;5018704;28;20037;-83
2022/11/13 08:09:28;;;;;;;0.20;0.10;;;;;;;;;;5032598;28;20127;-83
2022/11/13 08:11:54;;;;;;;0.20;0.10;;;;;;;;;;5034015;28;20044;-83
2022/11/13 08:14:20;;;;;;;0.35;0.35;;;;;;;;;;5020145;28;20059;-84
2022/11/13 08:16:46;;;;;;;0.20;0.10;;;;;;;;;;5041060;28;20052;-84
2022/11/13 08:19:13;;;;;;;0.20;0.10;;;;;;;;;;5036855;28;20166;-83
2022/11/13 08:21:41;;;;;;;0.20;0.10;;;;;;;;;;5052800;28;20070;-84
2022/11/13 08:24:09;;;;;;;0.20;0.10;;;;;;;;;;5040102;28;20168;-84
2022/11/13 08:26:37;;;;;;;0.20;0.20;;;;;;;;;;5049506;28;20118;-84
2022/11/13 08:29:03;;;;;;;0.20;0.10;;;;;;;;;;5031481;28;20055;-82
2022/11/13 08:31:30;;;;;;;0.20;0.20;;;;;;;;;;5041986;28;20036;-84
2022/11/13 08:33:59;;;;;;;0.25;0.25;;;;;;;;;;5030108;28;20033;-84
2022/11/13 08:36:56;;;;;;;0.20;0.10;;;;;;;;;;5060209;28;20491;-85
2022/11/13 08:39:25;;;;;;;0.20;0.17;;;;;;;;;;5045797;28;20033;-84
2022/11/13 08:42:06;;;;;;;0.20;0.10;;;;;;;;;;5041675;28;20557;-85
2022/11/13 08:44:47;;;;;;;0.20;0.10;;;;;;;;;;5046903;28;20033;-83
2022/11/13 08:47:13;;;;;;;0.20;0.10;;;;;;;;;;5048821;28;20041;-82
2022/11/13 08:49:39;;;;;;;0.20;0.10;;;;;;;;;;5048869;28;20055;-82
2022/11/13 08:52:05;;;;;;;0.20;0.10;;;;;;;;;;5034207;28;20041;-82
2022/11/13 08:54:49;;;;;;;0.20;0.10;;;;;;;;;;5057880;28;20082;-84
2022/11/13 08:57:18;;;;;;;0.20;0.10;;;;;;;;;;5023428;28;20915;-86
2022/11/13 08:59:44;;;;;;;0.93;0.85;;;;;;;;;;5038456;28;20032;-84
2022/11/13 09:02:14;;;;;;;0.20;0.20;;;;;;;;;;5028879;28;20102;-85
2022/11/13 09:04:41;;;;;;;0.35;0.30;;;;;;;;;;5047696;28;20044;-85
2022/11/13 09:07:07;;;;;;;0.20;0.10;;;;;;;;;;5034998;28;20090;-85
2022/11/13 09:09:33;;;;;;;0.20;0.10;;;;;;;;;;5044344;28;20126;-84
2022/11/13 09:11:59;;;;;;;0.50;0.40;;;;;;;;;;5027593;28;20036;-86
2022/11/13 09:14:26;;;;;;;0.20;0.10;;;;;;;;;;5043411;28;20041;-84
2022/11/13 09:16:53;;;;;;;0.20;0.10;;;;;;;;;;5031710;28;20067;-84
2022/11/13 09:19:19;;;;;;;0.20;0.10;;;;;;;;;;5064019;28;20083;-85
2022/11/13 09:21:46;;;;;;;0.20;0.10;;;;;;;;;;5063808;28;20085;-84
2022/11/13 09:24:12;;;;;;;0.20;0.10;;;;;;;;;;5046682;28;20036;-85
2022/11/13 09:26:38;;;;;;;0.20;0.10;;;;;;;;;;5048959;28;20594;-85
2022/11/13 09:29:04;;;;;;;0.20;0.10;;;;;;;;;;5062272;28;21526;-84
2022/11/13 09:31:30;;;;;;;0.20;0.10;;;;;;;;;;5063807;28;20040;-85
2022/11/13 09:33:56;;;;;;;0.20;0.10;;;;;;;;;;5033577;28;20033;-84
2022/11/13 09:36:22;;;;;;;0.20;0.10;;;;;;;;;;5059227;28;20155;-87
2022/11/13 09:38:49;;;;;;;0.20;0.10;;;;;;;;;;5051699;28;20127;-84
2022/11/13 09:41:20;;;;;;;0.20;0.10;;;;;;;;;;5101854;22;20046;-83
2022/11/13 09:43:48;;;;;;;0.20;0.10;;;;;;;;;;5100304;27;20046;-85
2022/11/13 09:46:18;;;;;;;0.20;0.10;;;;;;;;;;5099889;27;20129;-84
2022/11/13 09:48:48;;;;;;;0.20;0.10;;;;;;;;;;5093742;27;22529;-85
2022/11/13 09:51:22;;;;;;;0.20;0.10;;;;;;;;;;5096015;27;20062;-84
2022/11/13 09:53:48;;;;;;;0.20;0.13;;;;;;;;;;5112052;27;20043;-82
2022/11/13 09:56:20;;;;;;;0.30;0.20;;;;;;;;;;5086950;27;20042;-86
2022/11/13 09:58:49;;;;;;;0.20;0.00;;;;;;;;;;5099251;27;20071;-81
2022/11/13 10:01:21;;;;;;;0.20;0.10;;;;;;;;;;5114269;27;20046;-84
2022/11/13 10:03:51;;;;;;;0.20;0.10;;;;;;;;;;5102399;27;20089;-81
2022/11/13 10:06:40;;;;;;;0.20;0.10;;;;;;;;;;5105409;27;20047;-82
2022/11/13 10:09:17;;;;;;;0.20;0.10;;;;;;;;;;5104001;27;20036;-82
2022/11/13 10:11:47;;;;;;;0.20;0.10;;;;;;;;;;5083973;27;20092;-82
2022/11/13 10:14:26;;;;;;;0.20;0.10;;;;;;;;;;5099786;27;20051;-82
2022/11/13 10:16:57;;;;;;;0.20;0.10;;;;;;;;;;5092510;27;20489;-84
2022/11/13 10:19:42;;;;;;;0.20;0.08;;;;;;;;;;5116311;27;20039;-82
2022/11/13 10:22:29;;;;;;;0.43;0.22;;;;;;;;;;5091850;27;20080;-82
2022/11/13 10:24:59;;;;;;;0.20;0.10;;;;;;;;;;5102677;27;20047;-82
2022/11/13 10:27:25;;;;;;;0.55;0.30;;;;;;;;;;5081907;27;20054;-80
2022/11/13 10:29:52;;;;;;;0.20;0.10;;;;;;;;;;5085103;27;20034;-84
2022/11/13 10:32:23;;;;;;;0.20;0.10;;;;;;;;;;5082365;27;20035;-80
2022/11/13 10:35:09;;;;;;;0.20;0.10;;;;;;;;;;5094283;27;20049;-81
2022/11/13 10:37:54;;;;;;;0.20;0.10;;;;;;;;;;5043113;27;20039;-82
2022/11/13 10:40:24;;;;;;;0.30;0.10;;;;;;;;;;5087408;27;20050;-83
2022/11/13 10:42:50;;;;;;;0.20;0.10;;;;;;;;;;5083950;27;20075;-83
2022/11/13 10:45:17;;;;;;;0.20;0.10;;;;;;;;;;5103304;27;20503;-83
2022/11/13 10:47:46;;;;;;;0.20;0.10;;;;;;;;;;5088406;27;20168;-85
2022/11/13 10:50:19;;;;;;;0.20;0.15;;;;;;;;;;5083217;27;20039;-83
2022/11/13 10:52:47;;;;;;;0.20;0.10;;;;;;;;;;5103873;27;20775;-81
2022/11/13 10:55:32;;;;;;;0.20;0.20;;;;;;;;;;5104170;27;20051;-82
2022/11/13 10:57:59;;;;;;;0.20;0.10;;;;;;;;;;5101025;27;20036;-83
2022/11/13 11:00:29;;;;;;;0.20;0.10;;;;;;;;;;5102607;27;20473;-82
2022/11/13 11:02:55;;;;;;;0.20;0.10;;;;;;;;;;5085755;27;20043;-82
2022/11/13 11:05:23;;;;;;;2.80;0.55;;;;;;;;;;5068766;27;20080;-82
2022/11/13 11:07:49;;;;;;;0.20;0.10;;;;;;;;;;5092977;27;20489;-81
2022/11/13 11:10:32;;;;;;;0.20;0.10;;;;;;;;;;5088086;27;20323;-80
2022/11/13 11:13:22;;;;;;;0.20;0.10;;;;;;;;;;5086563;27;20698;-80
2022/11/13 11:15:53;;;;;;;0.20;0.10;;;;;;;;;;5096673;27;20596;-82
2022/11/13 11:18:28;;;;;;;0.20;0.10;;;;;;;;;;5126368;27;20043;-83
2022/11/13 11:20:57;;;;;;;0.20;0.10;;;;;;;;;;5095249;27;20715;-84
2022/11/13 11:23:39;;;;;;;0.20;0.10;;;;;;;;;;5088731;27;20091;-84
2022/11/13 11:26:08;;;;;;;0.30;0.10;;;;;;;;;;5087922;27;20063;-83
2022/11/13 11:28:47;;;;;;;0.20;0.10;;;;;;;;;;5088105;27;20039;-83
2022/11/13 11:31:16;;;;;;;0.20;0.17;;;;;;;;;;5104556;27;20100;-83
2022/11/13 11:33:48;;;;;;;0.20;0.10;;;;;;;;;;5075638;27;20258;-83
2022/11/13 11:36:29;;;;;;;1.65;1.20;;;;;;;;;;5087952;27;20138;-82
2022/11/13 11:39:04;;;;;;;0.20;0.10;;;;;;;;;;5093952;27;20051;-83
2022/11/13 11:41:34;;;;;;;0.20;0.10;;;;;;;;;;5089334;27;20351;-83
2022/11/13 11:44:04;;;;;;;0.20;0.10;;;;;;;;;;5079502;27;20046;-84
2022/11/13 11:46:31;;;;;;;0.35;0.10;;;;;;;;;;5083086;27;20043;-83
2022/11/13 11:48:59;;;;;;;0.20;0.10;;;;;;;;;;5063183;27;20100;-84
2022/11/13 11:51:25;;;;;;;0.20;0.10;;;;;;;;;;5080331;27;20031;-83
2022/11/13 11:54:09;;;;;;;0.20;0.10;;;;;;;;;;5086480;27;20051;-83
2022/11/13 11:56:48;;;;;;;0.20;0.10;;;;;;;;;;5099949;27;20043;-83
2022/11/13 11:59:34;;;;;;;0.20;0.10;;;;;;;;;;5087928;27;20035;-84
2022/11/13 12:02:00;;;;;;;0.63;0.40;;;;;;;;;;5068862;27;20458;-83
2022/11/13 12:04:32;;;;;;;0.20;0.10;;;;;;;;;;5092079;27;20055;-82
2022/11/13 12:06:58;;;;;;;0.20;0.10;;;;;;;;;;5092135;27;20043;-81
2022/11/13 12:09:32;;;;;;;0.20;0.10;;;;;;;;;;5081154;27;20039;-82
2022/11/13 12:12:25;;;;;;;0.20;0.10;;;;;;;;;;5104658;27;20039;-83
2022/11/13 12:15:00;;;;;;;0.20;0.10;;;;;;;;;;5099554;27;20047;-83
2022/11/13 12:17:46;;;;;;;0.20;0.10;;;;;;;;;;5086334;27;20058;-83
2022/11/13 12:20:33;;;;;;;0.20;0.10;;;;;;;;;;5092549;27;20055;-83
2022/11/13 12:23:17;;;;;;;0.20;0.10;;;;;;;;;;5080964;27;20046;-82
2022/11/13 12:25:47;;;;;;;0.20;0.10;;;;;;;;;;5090416;28;20166;-84
2022/11/13 12:28:31;;;;;;;0.20;0.10;;;;;;;;;;5099741;27;20612;-82
2022/11/13 12:31:04;;;;;;;0.20;0.10;;;;;;;;;;5092070;28;20065;-81
2022/11/13 12:33:30;;;;;;;0.20;0.10;;;;;;;;;;5083430;28;20043;-84
2022/11/13 12:35:56;;;;;;;0.20;0.10;;;;;;;;;;5090380;28;20054;-82
2022/11/13 12:38:35;;;;;;;0.20;0.10;;;;;;;;;;5088347;28;20042;-83
2022/11/13 12:41:01;;;;;;;0.20;0.10;;;;;;;;;;5109440;28;20039;-83
2022/11/13 12:43:30;;;;;;;0.20;0.10;;;;;;;;;;5108718;27;20086;-83
2022/11/13 12:46:07;;;;;;;0.20;0.13;;;;;;;;;;5086946;28;20051;-82
2022/11/13 12:48:35;;;;;;;0.20;0.20;;;;;;;;;;5110918;27;20051;-81
2022/11/13 12:51:09;;;;;;;0.43;0.40;;;;;;;;;;5093295;28;20611;-83
2022/11/13 12:53:55;;;;;;;0.20;0.10;;;;;;;;;;5108710;27;20549;-82
2022/11/13 12:56:21;;;;;;;0.20;0.10;;;;;;;;;;5098648;28;20027;-82
2022/11/13 12:58:54;;;;;;;0.20;0.10;;;;;;;;;;5092905;28;20043;-82
2022/11/13 13:01:21;;;;;;;0.60;0.30;;;;;;;;;;5104101;27;20124;-84
2022/11/13 13:04:06;;;;;;;0.20;0.10;;;;;;;;;;5093874;28;20664;-83
2022/11/13 13:06:47;;;;;;;0.20;0.10;;;;;;;;;;5097724;28;20057;-83
2022/11/13 13:09:29;;;;;;;0.20;0.10;;;;;;;;;;5108717;27;20035;-83
2022/11/13 13:12:02;;;;;;;0.20;0.10;;;;;;;;;;5087830;28;20111;-81
2022/11/13 13:14:34;;;;;;;0.20;0.10;;;;;;;;;;5107588;27;20256;-83
2022/11/13 13:17:21;;;;;;;0.20;0.10;;;;;;;;;;5096535;27;20042;-83
2022/11/13 13:19:56;;;;;;;0.20;0.00;;;;;;;;;;5104681;27;20090;-83
2022/11/13 13:22:27;;;;;;;0.32;0.32;;;;;;;;;;5104176;27;20647;-81
2022/11/13 13:25:19;;;;;;;0.50;0.40;;;;;;;;;;5109839;27;20070;-83
2022/11/13 13:27:55;;;;;;;0.20;0.10;;;;;;;;;;5086605;27;20040;-81
2022/11/13 13:30:22;;;;;;;0.20;0.10;;;;;;;;;;5107131;27;20031;-82
2022/11/13 13:33:08;;;;;;;0.20;0.10;;;;;;;;;;5105302;27;20512;-81
2022/11/13 13:35:39;;;;;;;0.20;0.10;;;;;;;;;;5071976;27;20050;-83
2022/11/13 13:38:13;;;;;;;0.20;0.10;;;;;;;;;;5108167;27;21645;-82
2022/11/13 13:41:05;;;;;;;0.20;0.10;;;;;;;;;;5107768;27;20575;-83
2022/11/13 13:43:46;;;;;;;0.20;0.10;;;;;;;;;;5075438;27;20044;-83
2022/11/13 13:46:17;;;;;;;0.20;0.10;;;;;;;;;;5112374;27;20031;-82
2022/11/13 13:48:45;;;;;;;0.20;0.10;;;;;;;;;;5091416;27;20124;-81
2022/11/13 13:51:24;;;;;;;0.20;0.10;;;;;;;;;;5095084;27;20416;-83
2022/11/13 13:53:51;;;;;;;0.20;0.20;;;;;;;;;;5090847;27;20044;-83
2022/11/13 13:56:17;;;;;;;0.20;0.10;;;;;;;;;;5097207;27;20039;-81
2022/11/13 13:58:43;;;;;;;0.20;0.10;;;;;;;;;;5110879;27;20426;-84
2022/11/13 14:01:14;;;;;;;0.20;0.10;;;;;;;;;;5088436;27;20058;-83
2022/11/13 14:03:40;;;;;;;0.20;0.10;;;;;;;;;;5091175;27;20172;-83
2022/11/13 14:06:23;;;;;;;0.20;0.10;;;;;;;;;;5091457;27;20035;-83
2022/11/13 14:21:42;;;;;;;0.20;0.10;;;;;;;;;;4995441;28;20057;-80
2022/11/13 14:24:27;;;;;;;0.20;0.10;;;;;;;;;;4955730;28;20065;-82
2022/11/13 14:26:54;;;;;;;0.20;0.10;;;;;;;;;;4954583;28;20050;-81
2022/11/13 14:29:40;;;;;;;0.20;0.10;;;;;;;;;;4975275;28;20676;-82
2022/11/13 14:32:10;;;;;;;0.20;0.10;;;;;;;;;;4958693;28;20038;-83
2022/11/13 14:34:37;;;;;;;0.20;0.10;;;;;;;;;;4941394;28;20050;-83
2022/11/13 14:37:13;;;;;;;0.20;0.10;;;;;;;;;;4969240;28;20622;-84
2022/11/13 14:39:41;;;;;;;0.20;0.10;;;;;;;;;;4972209;28;20128;-82
2022/11/13 14:42:08;;;;;;;0.20;0.10;;;;;;;;;;4964297;28;20042;-82
2022/11/13 14:44:34;;;;;;;0.20;0.10;;;;;;;;;;4954777;28;20062;-84
2022/11/13 14:47:05;;;;;;;0.20;0.10;;;;;;;;;;4956195;28;20047;-82
2022/11/13 14:49:32;;;;;;;0.20;0.10;;;;;;;;;;4966114;28;20109;-82
2022/11/13 14:52:00;;;;;;;0.20;0.20;;;;;;;;;;4952840;28;20054;-81
2022/11/13 14:54:30;;;;;;;0.20;0.20;;;;;;;;;;4986973;28;20083;-80
2022/11/13 14:57:06;;;;;;;0.20;0.10;;;;;;;;;;4951350;28;20046;-81
2022/11/13 14:59:32;;;;;;;0.20;0.10;;;;;;;;;;4970332;28;20050;-79
2022/11/13 15:01:59;;;;;;;0.20;0.10;;;;;;;;;;4945584;28;20046;-79
2022/11/13 15:04:26;;;;;;;0.20;0.10;;;;;;;;;;4968352;28;22020;-82
2022/11/13 15:06:54;;;;;;;0.20;0.10;;;;;;;;;;4972139;28;20862;-81
2022/11/13 15:09:21;;;;;;;0.20;0.10;;;;;;;;;;4986298;28;20065;-81
2022/11/13 15:11:47;;;;;;;0.20;0.17;;;;;;;;;;4973551;28;20034;-81
2022/11/13 15:14:14;;;;;;;0.20;0.10;;;;;;;;;;4954843;28;20035;-80